createdAt,value
2022-08-26T00:01:28.971Z,9.50
2022-08-26T00:03:56.531Z,13.37
2022-08-26T00:06:23.210Z,7.30
2022-08-26T00:08:49.780Z,9.30
2022-08-26T00:11:16.362Z,9.70
2022-08-26T00:13:53.563Z,10.33
2022-08-26T00:16:20.199Z,7.37
2022-08-26T00:18:46.768Z,10.27
2022-08-26T00:21:13.326Z,13.23
2022-08-26T00:23:40.503Z,12.20
2022-08-26T00:26:08.322Z,7.90
2022-08-26T00:28:35.235Z,8.07
2022-08-26T00:31:01.838Z,12.63
2022-08-26T00:33:28.383Z,9.10
2022-08-26T00:35:54.934Z,10.07
2022-08-26T00:38:22.162Z,12.67
2022-08-26T00:40:50.286Z,10.17
2022-08-26T00:43:17.113Z,9.03
2022-08-26T00:45:46.672Z,11.97
2022-08-26T00:48:13.372Z,11.70
2022-08-26T00:50:40.026Z,10.03
2022-08-26T00:53:21.388Z,8.60
2022-08-26T00:55:50.749Z,11.10
2022-08-26T00:58:17.708Z,10.27
2022-08-26T01:00:45.252Z,13.87
2022-08-26T01:03:12.806Z,16.93
2022-08-26T01:05:39.522Z,9.47
2022-08-26T01:08:06.289Z,15.40
2022-08-26T01:10:32.850Z,13.80
2022-08-26T01:12:59.454Z,11.73
2022-08-26T01:15:26.012Z,7.70
2022-08-26T01:17:52.579Z,12.73
2022-08-26T01:20:19.372Z,8.93
2022-08-26T01:22:45.935Z,12.90
2022-08-26T01:25:12.592Z,8.80
2022-08-26T01:27:39.167Z,7.93
2022-08-26T01:30:05.771Z,9.63
2022-08-26T01:32:32.429Z,8.57
2022-08-26T01:34:58.967Z,10.83
2022-08-26T01:37:25.622Z,9.53
2022-08-26T01:39:52.224Z,8.73
2022-08-26T01:42:19.009Z,10.47
2022-08-26T01:44:45.665Z,11.70
2022-08-26T01:47:12.255Z,9.27
2022-08-26T01:49:38.945Z,9.63
2022-08-26T01:52:05.513Z,10.77
2022-08-26T01:54:32.812Z,14.13
2022-08-26T01:56:59.368Z,13.37
2022-08-26T01:59:25.910Z,9.60
2022-08-26T02:01:52.812Z,10.80
2022-08-26T02:04:20.834Z,12.60
2022-08-26T02:06:47.433Z,9.00
2022-08-26T02:09:14.058Z,13.80
2022-08-26T02:11:41.649Z,12.50
2022-08-26T02:14:08.416Z,14.50
2022-08-26T02:16:35.623Z,10.17
2022-08-26T02:19:02.855Z,10.63
2022-08-26T02:21:30.249Z,13.33
2022-08-26T02:23:57.419Z,13.20
2022-08-26T02:26:24.086Z,9.90
2022-08-26T02:28:53.653Z,16.83
2022-08-26T02:31:20.290Z,21.10
2022-08-26T02:33:47.412Z,9.50
2022-08-26T02:36:14.006Z,9.30
2022-08-26T02:38:43.064Z,12.53
2022-08-26T02:41:10.124Z,10.87
2022-08-26T02:43:37.197Z,13.03
2022-08-26T02:46:03.733Z,18.20
2022-08-26T02:48:31.117Z,16.07
2022-08-26T02:50:57.689Z,13.63
2022-08-26T02:53:25.447Z,10.80
2022-08-26T02:55:52.233Z,11.63
2022-08-26T02:58:18.894Z,12.07
2022-08-26T03:00:52.655Z,14.17
2022-08-26T03:03:20.584Z,12.83
2022-08-26T03:05:49.531Z,12.00
2022-08-26T03:08:16.397Z,21.73
2022-08-26T03:10:43.110Z,11.43
2022-08-26T03:13:09.782Z,8.33
2022-08-26T03:15:36.476Z,17.20
2022-08-26T03:18:04.761Z,15.17
2022-08-26T03:20:31.303Z,11.97
2022-08-26T03:22:57.996Z,16.47
2022-08-26T03:25:25.738Z,12.83
2022-08-26T03:27:52.413Z,13.43
2022-08-26T03:30:37.491Z,18.30
2022-08-26T03:33:04.482Z,15.30
2022-08-26T03:35:31.069Z,18.17
2022-08-26T03:37:57.733Z,10.73
2022-08-26T03:40:24.503Z,11.50
2022-08-26T03:42:55.655Z,13.07
2022-08-26T03:45:22.191Z,18.20
2022-08-26T03:47:48.761Z,15.73
2022-08-26T03:50:15.759Z,18.50
2022-08-26T03:52:44.064Z,15.23
2022-08-26T03:55:10.804Z,13.47
2022-08-26T03:57:37.378Z,11.87
2022-08-26T04:00:03.953Z,13.13
2022-08-26T04:02:30.577Z,12.33
2022-08-26T04:04:57.337Z,19.53
2022-08-26T04:07:26.017Z,14.23
2022-08-26T04:09:52.596Z,11.60
2022-08-26T04:12:19.153Z,12.10
2022-08-26T04:14:45.862Z,11.83
2022-08-26T04:17:12.673Z,14.07
2022-08-26T04:19:39.518Z,12.90
2022-08-26T04:22:06.118Z,11.17
2022-08-26T04:24:32.871Z,15.23
2022-08-26T04:26:59.656Z,9.93
2022-08-26T04:29:26.376Z,12.00
2022-08-26T04:31:55.513Z,12.40
2022-08-26T04:34:22.425Z,14.70
2022-08-26T04:36:50.171Z,12.30
2022-08-26T04:39:16.859Z,14.70
2022-08-26T04:41:45.425Z,12.77
2022-08-26T04:44:12.017Z,10.30
2022-08-26T04:46:39.786Z,13.03
2022-08-26T04:49:10.421Z,11.83
2022-08-26T04:51:37.024Z,11.37
2022-08-26T04:54:03.657Z,8.87
2022-08-26T04:56:30.942Z,13.20
2022-08-26T04:58:57.584Z,15.17
2022-08-26T05:01:24.389Z,12.67
2022-08-26T05:03:51.145Z,11.10
2022-08-26T05:06:19.060Z,12.50
2022-08-26T05:08:45.703Z,14.93
2022-08-26T05:11:12.282Z,13.23
2022-08-26T05:13:39.051Z,14.57
2022-08-26T05:16:05.861Z,14.23
2022-08-26T05:18:34.078Z,14.57
2022-08-26T05:21:02.387Z,17.40
2022-08-26T05:23:31.384Z,19.93
2022-08-26T05:26:00.331Z,19.27
2022-08-26T05:28:27.182Z,19.93
2022-08-26T05:30:54.280Z,14.00
2022-08-26T05:33:21.284Z,17.23
2022-08-26T05:35:48.631Z,22.43
2022-08-26T05:38:15.532Z,13.33
2022-08-26T05:40:42.109Z,12.80
2022-08-26T05:43:10.479Z,15.93
2022-08-26T05:45:42.308Z,15.07
2022-08-26T05:48:12.710Z,14.90
2022-08-26T05:50:39.634Z,17.63
2022-08-26T05:53:06.231Z,23.10
2022-08-26T05:55:33.163Z,16.23
2022-08-26T05:57:59.721Z,22.13
2022-08-26T06:00:29.336Z,27.63
2022-08-26T06:02:56.062Z,30.60
2022-08-26T06:05:22.820Z,31.00
2022-08-26T06:08:08.182Z,26.37
2022-08-26T06:10:37.691Z,32.80
2022-08-26T06:13:09.173Z,41.80
2022-08-26T06:15:39.055Z,44.37
2022-08-26T06:18:08.660Z,50.43
2022-08-26T06:20:36.561Z,53.57
2022-08-26T06:23:42.194Z,60.13
2022-08-26T06:26:08.771Z,54.60
2022-08-26T06:28:37.656Z,52.77
2022-08-26T06:31:04.466Z,67.17
2022-08-26T06:33:31.210Z,63.47
2022-08-26T06:35:58.764Z,61.87
2022-08-26T06:38:25.532Z,61.50
2022-08-26T06:40:52.851Z,67.37
2022-08-26T06:43:20.794Z,73.63
2022-08-26T06:45:47.757Z,81.90
2022-08-26T06:48:14.578Z,89.80
2022-08-26T06:50:41.164Z,95.40
2022-08-26T06:53:08.146Z,109.90
2022-08-26T06:55:36.331Z,91.90
2022-08-26T06:58:03.542Z,101.50
2022-08-26T07:00:32.120Z,109.77
2022-08-26T07:02:58.833Z,104.60
2022-08-26T07:05:26.203Z,104.67
2022-08-26T07:07:52.736Z,117.03
2022-08-26T07:10:19.422Z,114.90
2022-08-26T07:12:47.227Z,111.53
2022-08-26T07:15:13.945Z,109.43
2022-08-26T07:17:42.131Z,122.10
2022-08-26T07:20:11.693Z,125.63
2022-08-26T07:22:38.261Z,105.73
2022-08-26T07:25:07.535Z,111.07
2022-08-26T07:27:34.110Z,120.90
2022-08-26T07:30:00.999Z,114.93
2022-08-26T07:32:28.734Z,118.23
2022-08-26T07:34:55.299Z,127.60
2022-08-26T07:37:22.645Z,145.77
2022-08-26T07:39:49.727Z,133.27
2022-08-26T07:42:16.383Z,123.43
2022-08-26T07:44:45.225Z,119.23
2022-08-26T07:47:25.417Z,122.63
2022-08-26T07:49:52.986Z,130.30
2022-08-26T07:52:25.897Z,114.10
2022-08-26T07:54:53.385Z,130.80
2022-08-26T07:57:20.080Z,150.57
2022-08-26T07:59:47.497Z,146.57
2022-08-26T08:02:14.108Z,137.40
2022-08-26T08:04:40.723Z,151.80
2022-08-26T08:07:07.597Z,134.33
2022-08-26T08:09:38.188Z,121.17
2022-08-26T08:12:07.350Z,130.47
2022-08-26T08:14:36.421Z,121.23
2022-08-26T08:17:03.291Z,131.73
2022-08-26T08:19:36.753Z,145.63
2022-08-26T08:22:06.863Z,129.60
2022-08-26T08:24:44.217Z,158.30
2022-08-26T08:27:10.901Z,128.67
2022-08-26T08:29:38.589Z,132.80
2022-08-26T08:32:05.850Z,121.33
2022-08-26T08:34:38.246Z,126.07
2022-08-26T08:37:07.359Z,133.83
2022-08-26T08:39:37.853Z,137.67
2022-08-26T08:42:06.359Z,124.40
2022-08-26T08:44:32.905Z,109.40
2022-08-26T08:46:59.660Z,133.37
2022-08-26T08:49:26.234Z,144.13
2022-08-26T08:51:52.851Z,123.80
2022-08-26T08:54:19.508Z,129.57
2022-08-26T08:56:48.659Z,129.33
2022-08-26T08:59:15.567Z,128.13
2022-08-26T09:01:42.301Z,134.50
2022-08-26T09:04:08.942Z,132.53
2022-08-26T09:06:37.525Z,120.80
2022-08-26T09:09:08.108Z,115.57
2022-08-26T09:11:34.892Z,117.93
2022-08-26T09:14:01.472Z,116.87
2022-08-26T09:16:28.275Z,115.33
2022-08-26T09:18:55.066Z,112.50
2022-08-26T09:21:23.346Z,98.40
2022-08-26T09:23:50.856Z,107.97
2022-08-26T09:26:19.830Z,114.33
2022-08-26T09:28:46.398Z,114.47
2022-08-26T09:31:13.341Z,105.90
2022-08-26T09:33:40.204Z,114.93
2022-08-26T09:36:06.741Z,106.47
2022-08-26T09:38:34.362Z,105.60
2022-08-26T09:41:00.909Z,115.80
2022-08-26T09:43:28.856Z,91.93
2022-08-26T09:45:59.118Z,93.53
2022-08-26T09:48:26.212Z,103.50
2022-08-26T09:50:53.249Z,95.70
2022-08-26T09:53:21.071Z,81.13
2022-08-26T09:55:52.222Z,85.80
2022-08-26T09:58:19.249Z,90.73
2022-08-26T10:00:46.338Z,88.80
2022-08-26T10:03:17.329Z,92.40
2022-08-26T10:05:44.133Z,79.73
2022-08-26T10:08:11.018Z,76.23
2022-08-26T10:10:38.511Z,79.17
2022-08-26T10:13:06.516Z,74.27
2022-08-26T10:15:33.149Z,88.30
2022-08-26T10:17:59.701Z,88.93
2022-08-26T10:20:26.384Z,74.83
2022-08-26T10:22:52.974Z,98.60
2022-08-26T10:25:19.501Z,84.80
2022-08-26T10:27:52.732Z,72.80
2022-08-26T10:30:20.124Z,73.30
2022-08-26T10:32:46.773Z,61.43
2022-08-26T10:35:13.320Z,69.40
2022-08-26T10:37:39.887Z,68.97
2022-08-26T10:40:07.497Z,68.03
2022-08-26T10:42:35.338Z,63.73
2022-08-26T10:45:02.351Z,84.17
2022-08-26T10:47:29.080Z,77.15
2022-08-26T10:50:02.991Z,77.90
2022-08-26T10:52:30.140Z,76.50
2022-08-26T10:54:56.710Z,65.57
2022-08-26T10:57:23.273Z,71.67
2022-08-26T10:59:49.903Z,84.30
2022-08-26T11:02:22.830Z,71.30
2022-08-26T11:04:51.360Z,81.20
2022-08-26T11:07:17.950Z,73.80
2022-08-26T11:09:45.097Z,74.57
2022-08-26T11:12:11.736Z,74.85
2022-08-26T11:14:44.633Z,72.47
2022-08-26T11:17:23.029Z,64.53
2022-08-26T11:20:09.206Z,71.65
2022-08-26T11:22:38.062Z,78.35
2022-08-26T11:25:14.575Z,70.80
2022-08-26T11:27:41.492Z,76.63
2022-08-26T11:30:08.205Z,65.10
2022-08-26T11:32:36.657Z,83.22
2022-08-26T11:35:04.542Z,69.23
2022-08-26T11:37:32.216Z,71.63
2022-08-26T11:39:59.197Z,63.08
2022-08-26T11:42:27.736Z,61.97
2022-08-26T11:44:55.543Z,60.45
2022-08-26T11:47:24.633Z,62.57
2022-08-26T11:49:51.570Z,66.30
2022-08-26T11:52:20.867Z,59.17
2022-08-26T11:54:47.655Z,54.47
2022-08-26T11:57:14.869Z,56.37
2022-08-26T11:59:42.237Z,53.60
2022-08-26T12:02:08.908Z,52.70
2022-08-26T12:04:38.137Z,54.53
2022-08-26T12:07:04.809Z,52.07
2022-08-26T12:09:35.283Z,45.07
2022-08-26T12:12:01.850Z,53.87
2022-08-26T12:14:28.583Z,53.83
2022-08-26T12:16:55.252Z,61.33
2022-08-26T12:19:22.080Z,45.97
2022-08-26T12:21:51.940Z,50.43
2022-08-26T12:24:18.601Z,55.03
2022-08-26T12:26:46.972Z,45.03
2022-08-26T12:29:26.665Z,51.73
2022-08-26T12:31:54.590Z,46.33
2022-08-26T12:34:21.439Z,50.60
2022-08-26T12:36:48.720Z,49.93
2022-08-26T12:39:15.487Z,51.50
2022-08-26T12:41:42.069Z,55.60
2022-08-26T12:44:08.663Z,53.90
2022-08-26T12:46:35.240Z,55.97
2022-08-26T12:49:02.827Z,42.90
2022-08-26T12:51:29.439Z,54.13
2022-08-26T12:53:56.036Z,46.90
2022-08-26T12:56:22.688Z,50.10
2022-08-26T12:58:49.390Z,54.50
2022-08-26T13:01:17.122Z,49.63
2022-08-26T13:03:43.944Z,47.37
2022-08-26T13:06:15.416Z,38.90
2022-08-26T13:08:42.712Z,43.80
2022-08-26T13:11:10.274Z,43.83
2022-08-26T13:13:37.080Z,45.70
2022-08-26T13:16:05.436Z,43.27
2022-08-26T13:18:32.028Z,43.33
2022-08-26T13:20:58.586Z,43.17
2022-08-26T13:23:25.150Z,35.47
2022-08-26T13:25:51.728Z,39.53
2022-08-26T13:28:18.295Z,44.40
2022-08-26T13:30:44.868Z,41.57
2022-08-26T13:33:12.342Z,45.40
2022-08-26T13:35:41.218Z,40.43
2022-08-26T13:38:09.919Z,41.30
2022-08-26T13:40:37.173Z,40.60
2022-08-26T13:43:03.738Z,44.83
2022-08-26T13:45:30.329Z,47.37
2022-08-26T13:47:58.434Z,38.50
2022-08-26T13:50:24.987Z,39.57
2022-08-26T13:52:51.611Z,39.63
2022-08-26T13:55:18.234Z,39.00
2022-08-26T13:57:44.780Z,29.77
2022-08-26T14:00:11.674Z,36.40
2022-08-26T14:02:38.353Z,44.53
2022-08-26T14:05:04.926Z,36.90
2022-08-26T14:07:31.473Z,42.13
2022-08-26T14:09:58.037Z,58.40
2022-08-26T14:12:25.106Z,35.97
2022-08-26T14:14:51.684Z,31.70
2022-08-26T14:17:18.337Z,38.77
2022-08-26T14:19:44.869Z,32.20
2022-08-26T14:22:11.427Z,35.50
2022-08-26T14:24:38.044Z,31.23
2022-08-26T14:27:04.998Z,30.13
2022-08-26T14:29:31.590Z,31.27
2022-08-26T14:31:59.643Z,35.87
2022-08-26T14:34:26.258Z,30.93
2022-08-26T14:36:52.815Z,46.20
2022-08-26T14:39:19.493Z,35.43
2022-08-26T14:41:46.158Z,40.73
2022-08-26T14:44:21.314Z,35.33
2022-08-26T14:46:48.785Z,41.07
2022-08-26T14:49:15.396Z,30.00
2022-08-26T14:51:41.995Z,29.17
2022-08-26T14:54:11.732Z,32.47
2022-08-26T14:56:38.325Z,29.83
2022-08-26T14:59:04.940Z,35.10
2022-08-26T15:01:32.454Z,27.50
2022-08-26T15:03:59.080Z,30.87
2022-08-26T15:06:25.842Z,24.93
2022-08-26T15:08:52.391Z,20.20
2022-08-26T15:11:19.031Z,24.30
2022-08-26T15:13:45.763Z,19.23
2022-08-26T15:16:12.374Z,31.97
2022-08-26T15:18:39.329Z,29.17
2022-08-26T15:21:05.893Z,24.57
2022-08-26T15:23:32.432Z,28.40
2022-08-26T15:25:59.027Z,17.60
2022-08-26T15:28:25.601Z,14.17
2022-08-26T15:30:52.320Z,22.50
2022-08-26T15:33:18.931Z,22.00
2022-08-26T15:35:45.499Z,16.50
2022-08-26T15:38:12.819Z,23.57
2022-08-26T15:40:39.448Z,17.93
2022-08-26T15:43:25.574Z,18.57
2022-08-26T15:45:53.006Z,15.03
2022-08-26T15:48:19.564Z,21.70
2022-08-26T15:50:46.110Z,16.47
2022-08-26T15:53:13.317Z,16.80
2022-08-26T15:55:39.940Z,18.63
2022-08-26T15:58:06.486Z,14.00
2022-08-26T16:00:33.040Z,21.63
2022-08-26T16:02:59.585Z,19.97
2022-08-26T16:05:26.249Z,27.77
2022-08-26T16:07:52.861Z,23.00
2022-08-26T16:10:19.418Z,16.60
2022-08-26T16:12:46.564Z,17.37
2022-08-26T16:15:13.298Z,23.30
2022-08-26T16:17:40.638Z,14.67
2022-08-26T16:20:07.930Z,18.67
2022-08-26T16:22:34.469Z,17.10
2022-08-26T16:25:01.025Z,16.20
2022-08-26T16:27:27.554Z,24.57
2022-08-26T16:29:54.152Z,14.97
2022-08-26T16:32:20.703Z,14.07
2022-08-26T16:34:56.754Z,20.13
2022-08-26T16:37:23.608Z,16.37
2022-08-26T16:39:50.266Z,24.40
2022-08-26T16:42:16.926Z,19.73
2022-08-26T16:44:46.645Z,14.17
2022-08-26T16:47:13.395Z,13.47
2022-08-26T16:49:40.025Z,17.27
2022-08-26T16:52:06.626Z,19.33
2022-08-26T16:54:33.284Z,11.73
2022-08-26T16:56:59.881Z,13.20
2022-08-26T16:59:26.445Z,12.37
2022-08-26T17:01:53.044Z,23.27
2022-08-26T17:04:19.767Z,10.97
2022-08-26T17:06:46.364Z,16.30
2022-08-26T17:09:12.924Z,15.90
2022-08-26T17:11:39.457Z,19.37
2022-08-26T17:14:06.250Z,9.43
2022-08-26T17:16:32.856Z,11.30
2022-08-26T17:18:59.573Z,13.70
2022-08-26T17:21:26.121Z,11.40
2022-08-26T17:23:52.950Z,10.80
2022-08-26T17:26:19.476Z,14.67
2022-08-26T17:28:46.036Z,23.93
2022-08-26T17:31:12.657Z,24.30
2022-08-26T17:33:39.229Z,18.80
2022-08-26T17:36:06.233Z,7.70
2022-08-26T17:38:32.798Z,13.33
2022-08-26T17:40:59.380Z,9.77
2022-08-26T17:43:26.749Z,10.53
2022-08-26T17:45:53.340Z,16.60
2022-08-26T17:48:20.412Z,13.70
2022-08-26T17:50:49.610Z,12.93
2022-08-26T17:53:18.764Z,19.27
2022-08-26T17:55:45.948Z,7.83
2022-08-26T17:58:14.597Z,17.13
2022-08-26T18:00:41.526Z,9.37
2022-08-26T18:03:08.501Z,19.50
2022-08-26T18:05:35.636Z,21.43
2022-08-26T18:08:02.218Z,7.83
2022-08-26T18:10:29.119Z,13.87
2022-08-26T18:12:55.652Z,11.20
2022-08-26T18:15:22.229Z,14.47
2022-08-26T18:17:49.308Z,15.93
2022-08-26T18:20:16.092Z,9.80
2022-08-26T18:22:42.669Z,14.53
2022-08-26T18:25:09.239Z,10.30
2022-08-26T18:27:36.051Z,19.10
2022-08-26T18:30:02.744Z,11.37
2022-08-26T18:32:29.346Z,10.37
2022-08-26T18:34:55.888Z,8.50
2022-08-26T18:37:22.471Z,10.80
2022-08-26T18:39:49.080Z,14.17
2022-08-26T18:42:15.721Z,14.77
2022-08-26T18:44:42.323Z,9.60
2022-08-26T18:47:08.966Z,23.67
2022-08-26T18:49:35.804Z,20.83
2022-08-26T18:52:02.378Z,15.03
2022-08-26T18:54:29.906Z,22.90
2022-08-26T18:56:56.569Z,20.77
2022-08-26T18:59:29.591Z,16.80
2022-08-26T19:01:57.380Z,10.20
2022-08-26T19:04:24.054Z,16.00
2022-08-26T19:06:53.500Z,15.97
2022-08-26T19:09:20.071Z,13.10
2022-08-26T19:11:48.891Z,15.53
2022-08-26T19:14:16.449Z,10.77
2022-08-26T19:16:43.059Z,16.90
2022-08-26T19:19:09.654Z,13.60
2022-08-26T19:21:36.260Z,19.77
2022-08-26T19:24:02.833Z,15.13
2022-08-26T19:26:29.650Z,12.80
2022-08-26T19:28:56.210Z,18.87
2022-08-26T19:31:22.857Z,15.80
2022-08-26T19:33:49.489Z,13.73
2022-08-26T19:36:16.177Z,12.70
2022-08-26T19:38:42.846Z,20.40
2022-08-26T19:41:09.466Z,15.00
2022-08-26T19:43:36.055Z,11.07
2022-08-26T19:46:02.858Z,11.03
2022-08-26T19:48:29.595Z,27.70
2022-08-26T19:50:56.200Z,13.17
2022-08-26T19:53:23.205Z,9.90
2022-08-26T19:55:49.760Z,13.63
2022-08-26T19:58:16.327Z,10.13
2022-08-26T20:00:42.963Z,15.13
2022-08-26T20:03:10.616Z,14.73
2022-08-26T20:05:41.771Z,11.83
2022-08-26T20:08:08.715Z,11.77
2022-08-26T20:10:49.006Z,8.50
2022-08-26T20:13:15.539Z,12.40
2022-08-26T20:15:42.107Z,9.80
2022-08-26T20:18:28.624Z,13.57
2022-08-26T20:21:13.729Z,10.80
2022-08-26T20:23:40.266Z,8.07
2022-08-26T20:26:06.879Z,10.30
2022-08-26T20:28:34.188Z,7.73
2022-08-26T20:31:00.797Z,6.10
2022-08-26T20:33:27.330Z,11.20
2022-08-26T20:35:53.966Z,14.20
2022-08-26T20:38:21.535Z,11.87
2022-08-26T20:40:49.165Z,15.93
2022-08-26T20:43:15.750Z,11.10
2022-08-26T20:45:42.390Z,11.60
2022-08-26T20:48:09.473Z,12.57
2022-08-26T20:50:36.159Z,10.57
2022-08-26T20:53:03.147Z,16.20
2022-08-26T20:55:29.764Z,10.27
2022-08-26T20:57:56.326Z,12.30
2022-08-26T21:00:26.503Z,11.90
2022-08-26T21:02:56.226Z,15.00
2022-08-26T21:05:22.756Z,11.77
2022-08-26T21:07:50.672Z,15.83
2022-08-26T21:10:17.592Z,10.23
2022-08-26T21:12:45.094Z,21.23
2022-08-26T21:15:11.630Z,17.57
2022-08-26T21:17:38.196Z,12.37
2022-08-26T21:20:04.949Z,16.23
2022-08-26T21:22:31.553Z,15.53
2022-08-26T21:24:58.221Z,16.30
2022-08-26T21:27:26.316Z,16.10
2022-08-26T21:29:53.308Z,15.37
2022-08-26T21:32:20.129Z,8.97
2022-08-26T21:34:46.692Z,14.33
2022-08-26T21:37:16.611Z,20.73
2022-08-26T21:39:43.572Z,17.00
2022-08-26T21:42:10.120Z,15.83
2022-08-26T21:44:36.778Z,12.70
2022-08-26T21:47:04.804Z,13.30
2022-08-26T21:49:31.396Z,12.43
2022-08-26T21:51:58.012Z,13.53
2022-08-26T21:54:24.661Z,13.70
2022-08-26T21:56:53.180Z,10.60
2022-08-26T21:59:19.787Z,23.93
2022-08-26T22:01:46.396Z,13.23
2022-08-26T22:04:12.948Z,14.30
2022-08-26T22:06:39.482Z,12.73
2022-08-26T22:09:06.026Z,11.30
2022-08-26T22:11:32.636Z,22.43
2022-08-26T22:13:59.202Z,14.53
2022-08-26T22:16:28.637Z,14.53
2022-08-26T22:18:55.336Z,17.07
2022-08-26T22:21:23.644Z,22.67
2022-08-26T22:23:50.210Z,20.07
2022-08-26T22:26:20.638Z,21.33
2022-08-26T22:28:52.225Z,13.13
2022-08-26T22:31:28.115Z,9.67
2022-08-26T22:34:04.055Z,15.93
2022-08-26T22:36:30.718Z,21.97
2022-08-26T22:38:58.825Z,18.00
2022-08-26T22:41:25.577Z,18.50
2022-08-26T22:43:52.573Z,18.90
2022-08-26T22:46:19.172Z,17.00
2022-08-26T22:48:45.719Z,13.00
2022-08-26T22:51:16.856Z,11.23
2022-08-26T22:53:44.061Z,25.67
2022-08-26T22:56:10.616Z,15.10
2022-08-26T22:58:37.215Z,13.77
2022-08-26T23:01:03.861Z,12.00
2022-08-26T23:03:30.570Z,18.20
2022-08-26T23:05:57.168Z,14.33
2022-08-26T23:08:24.604Z,16.00
2022-08-26T23:10:51.232Z,14.13
2022-08-26T23:13:18.314Z,12.73
2022-08-26T23:15:44.922Z,30.27
2022-08-26T23:18:11.657Z,19.93
2022-08-26T23:20:38.400Z,15.03
2022-08-26T23:23:04.960Z,19.80
2022-08-26T23:25:32.329Z,16.10
2022-08-26T23:27:59.655Z,16.40
2022-08-26T23:30:26.186Z,26.17
2022-08-26T23:32:52.895Z,16.33
2022-08-26T23:35:21.651Z,20.60
2022-08-26T23:37:50.058Z,24.90
2022-08-26T23:40:16.721Z,15.07
2022-08-26T23:42:44.140Z,17.90
2022-08-26T23:45:10.957Z,15.90
2022-08-26T23:47:37.502Z,21.30
2022-08-26T23:50:04.071Z,23.40
2022-08-26T23:52:49.498Z,22.23
2022-08-26T23:55:16.061Z,23.17
2022-08-26T23:57:42.632Z,19.63
